Atlanta, ID

5:10 AM MDT on October 25, 2014 (GMT -0600)
Friedman Memorial | Change Station
CLOSE
Current Station
Airport
Location: Hailey,
Elevation: 5315 ft
Nearby Weather Stations

Elev 5315 ft 43.50 °N, 114.30 °W | Updated 35 minutes ago

Partly Cloudy
Partly Cloudy
41 °F
Feels Like 34 °F
N
12
Wind Variable Wind from NW
Gusts 16 mph

Today
High -- | Low -- °F
--% Chance of Precip.
Yesterday
High -- | Low -- °F
Precip. -- in
8:08 AM 6:41 PM
Waxing Crescent, 3% visible
Pressure 30.08 in
Visibility 10.0 miles
Clouds Clear
Windchill 34 °F
Dew Point 30 °F
Humidity 65%
Rainfall 0.00 in
Snow Depth 0 in , 1 in , 0 in
UV 0 out of 12
Pollen 1.40 out of 12
Ozone Good
PM2.5 Good
Flu Activity No Activity
METAR KSUN 251035Z AUTO 31010G14KT 10SM CLR 05/M01 A3008 RMK AO2

More Conditions Fewer Conditions

Pressure 30.08 in
Visibility 10.0 miles
Clouds Clear
Windchill 34 °F
Dew Point 30 °F
Humidity 65%
Rainfall 0.00 in
Snow Depth 0 in , 1 in , 0 in
UV 0 out of 12
Pollen 1.40 out of 12
Ozone Good
PM2.5 Good
Flu Activity No Activity
METAR KSUN 251035Z AUTO 31010G14KT 10SM CLR 05/M01 A3008 RMK AO2

More Conditions Fewer Conditions

10-Day Weather Forecast

Almanac

Astronomy

Oct. 25, 2014 Rise Set
Actual Time 8:08 AM MDT 6:41 PM MDT
Civil Twilight 7:38 AM MDT 7:10 PM MDT
Nautical Twilight 7:05 AM MDT 7:44 PM MDT
Astronomical Twilight 6:31 AM MDT 8:17 PM MDT
Moon 9:53 AM MDT 8:04 PM MDT
Length of Visible Light 11h 32m
Length of Day
10h 33m
Tomorrow will be 2m 46s shorter.
Waxing Crescent, 3% of the Moon is Illuminated
Today
Waxing Crescent
Oct 30
First Quarter
Nov 6
Full
Nov 14
Last Quarter
Nov 22
New

Today's Extremes

State Highs State Lows

Community

WunderPhotos

Upload Photos

1,764,808 photos uploaded!

Nearby

Air Quality

  Air Quality AQ Index Pollutant
Yesterday Good
PM10
Yesterday Good
OZONE
Current Good
PM2.5
Current Good
OZONE
Saturday Good
OZONE
Sunday Good
OZONE
Monday Good
OZONE
Tuesday Good
OZONE

Snow Depth

Station Depth Elevation
Atlanta Summit 0 in 7580 ft
Trinity Mountain 1 in 7770 ft
Jackson Peak 0 in 7070 ft
Vienna Mine 0 in 8960 ft
Galena Summit 0 in 8780 ft

Earthquake Activity

City Distance Mag. Time & Date
No recent earthquake activity has been reported nearby.
Minimum magnitude displayed is 2.5.

Coastal Water Temperatures

Place Temperature
No Stations Reporting

Nearby Weather Stations